createdAt,value
2018-12-21T00:01:01.824Z,100.00
2018-12-21T00:03:30.173Z,100.00
2018-12-21T00:05:58.411Z,100.00
2018-12-21T00:08:26.687Z,100.00
2018-12-21T00:10:55.012Z,100.00
2018-12-21T00:13:23.299Z,100.00
2018-12-21T00:15:51.559Z,100.00
2018-12-21T00:18:20.071Z,100.00
2018-12-21T00:20:48.423Z,100.00
2018-12-21T00:23:16.662Z,100.00
2018-12-21T00:25:44.987Z,100.00
2018-12-21T00:28:13.273Z,100.00
2018-12-21T00:30:41.023Z,100.00
2018-12-21T00:33:14.791Z,100.00
2018-12-21T00:35:48.588Z,100.00
2018-12-21T00:38:22.428Z,100.00
2018-12-21T00:40:56.188Z,100.00
2018-12-21T00:46:18.421Z,100.00
2018-12-21T00:48:46.695Z,100.00
2018-12-21T00:51:16.324Z,100.00
2018-12-21T00:53:44.702Z,100.00
2018-12-21T00:56:12.957Z,100.00
2018-12-21T00:58:41.275Z,100.00
2018-12-21T01:01:09.704Z,100.00
2018-12-21T01:03:37.970Z,100.00
2018-12-21T01:06:06.328Z,100.00
2018-12-21T01:08:34.579Z,100.00
2018-12-21T01:11:02.829Z,100.00
2018-12-21T01:13:31.095Z,100.00
2018-12-21T01:15:59.391Z,100.00
2018-12-21T01:18:27.731Z,100.00
2018-12-21T01:20:56.106Z,100.00
2018-12-21T01:23:24.331Z,100.00
2018-12-21T01:25:53.135Z,100.00
2018-12-21T01:28:21.379Z,100.00
2018-12-21T01:30:49.618Z,100.00
2018-12-21T01:33:17.926Z,100.00
2018-12-21T01:35:47.107Z,100.00
2018-12-21T01:38:15.370Z,100.00
2018-12-21T01:40:43.602Z,100.00
2018-12-21T01:43:11.846Z,100.00
2018-12-21T01:45:40.096Z,100.00
2018-12-21T01:48:08.399Z,100.00
2018-12-21T01:50:36.657Z,100.00
2018-12-21T01:53:05.016Z,100.00
2018-12-21T01:55:33.263Z,100.00
2018-12-21T01:58:02.327Z,100.00
2018-12-21T02:00:30.730Z,100.00
2018-12-21T02:02:59.029Z,100.00
2018-12-21T02:05:27.276Z,100.00
2018-12-21T02:07:55.519Z,100.00
2018-12-21T02:10:23.795Z,100.00
2018-12-21T02:12:52.031Z,100.00
2018-12-21T02:15:20.355Z,100.00
2018-12-21T02:17:48.596Z,100.00
2018-12-21T02:20:16.888Z,100.00
2018-12-21T02:22:45.143Z,100.00
2018-12-21T02:25:13.445Z,100.00
2018-12-21T02:27:41.680Z,100.00
2018-12-21T02:30:10.004Z,100.00
2018-12-21T02:32:38.291Z,100.00
2018-12-21T02:35:06.554Z,100.00
2018-12-21T02:37:34.784Z,100.00
2018-12-21T02:40:03.791Z,100.00
2018-12-21T02:42:32.051Z,100.00
2018-12-21T02:45:00.306Z,100.00
2018-12-21T02:47:28.540Z,100.00
2018-12-21T02:49:57.657Z,100.00
2018-12-21T02:52:26.360Z,100.00
2018-12-21T02:54:54.616Z,100.00
2018-12-21T02:57:22.855Z,100.00
2018-12-21T02:59:51.125Z,100.00
2018-12-21T03:02:19.387Z,100.00
2018-12-21T03:04:47.623Z,100.00
2018-12-21T03:07:15.879Z,100.00
2018-12-21T03:09:44.123Z,100.00
2018-12-21T03:12:12.448Z,100.00
2018-12-21T03:14:40.703Z,100.00
2018-12-21T03:17:09.044Z,100.00
2018-12-21T03:19:37.284Z,100.00
2018-12-21T03:22:14.292Z,100.00
2018-12-21T03:24:35.798Z,100.00
2018-12-21T03:27:04.046Z,100.00
2018-12-21T03:29:32.279Z,100.00
2018-12-21T03:32:00.631Z,100.00
2018-12-21T03:34:28.989Z,100.00
2018-12-21T03:36:57.328Z,100.00
2018-12-21T03:39:25.610Z,100.00
2018-12-21T03:41:53.892Z,100.00
2018-12-21T03:44:22.151Z,100.00
2018-12-21T03:46:50.464Z,100.00
2018-12-21T03:49:18.731Z,100.00
2018-12-21T03:51:47.072Z,100.00
2018-12-21T03:54:15.510Z,100.00
2018-12-21T03:56:43.757Z,100.00
2018-12-21T03:59:11.995Z,100.00
2018-12-21T04:01:40.246Z,100.00
2018-12-21T04:04:08.577Z,100.00
2018-12-21T04:06:37.332Z,100.00
2018-12-21T04:09:06.456Z,100.00
2018-12-21T04:11:34.791Z,100.00
2018-12-21T04:14:03.048Z,100.00
2018-12-21T04:16:31.290Z,100.00
2018-12-21T04:18:59.532Z,100.00
2018-12-21T04:21:27.785Z,100.00
2018-12-21T04:23:56.026Z,100.00
2018-12-21T04:26:24.267Z,100.00
2018-12-21T04:28:52.529Z,100.00
2018-12-21T04:31:20.782Z,100.00
2018-12-21T04:33:49.150Z,100.00
2018-12-21T04:36:17.584Z,100.00
2018-12-21T04:38:45.830Z,100.00
2018-12-21T04:41:14.091Z,100.00
2018-12-21T04:43:42.334Z,100.00
2018-12-21T04:46:10.569Z,100.00
2018-12-21T04:48:38.810Z,100.00
2018-12-21T04:51:07.062Z,100.00
2018-12-21T04:53:35.320Z,100.00
2018-12-21T04:56:03.575Z,100.00
2018-12-21T04:58:31.835Z,100.00
2018-12-21T05:01:00.093Z,100.00
2018-12-21T05:03:28.321Z,100.00
2018-12-21T05:05:56.577Z,100.00
2018-12-21T05:08:24.818Z,100.00
2018-12-21T05:10:53.108Z,100.00
2018-12-21T05:13:21.358Z,100.00
2018-12-21T05:15:49.591Z,100.00
2018-12-21T05:18:17.850Z,100.00
2018-12-21T05:20:46.191Z,100.00
2018-12-21T05:23:14.427Z,100.00
2018-12-21T05:25:42.676Z,100.00
2018-12-21T05:28:11.040Z,100.00
2018-12-21T05:30:39.361Z,100.00
2018-12-21T05:33:07.619Z,100.00
2018-12-21T05:35:35.866Z,100.00
2018-12-21T05:38:04.100Z,100.00
2018-12-21T05:40:33.187Z,100.00
2018-12-21T05:43:01.542Z,100.00
2018-12-21T05:45:29.815Z,100.00
2018-12-21T05:47:58.140Z,100.00
2018-12-21T05:50:26.453Z,100.00
2018-12-21T05:53:00.754Z,100.00
2018-12-21T05:55:25.053Z,100.00
2018-12-21T05:57:53.316Z,100.00
2018-12-21T06:00:21.567Z,100.00
2018-12-21T06:02:49.827Z,100.00
2018-12-21T06:05:18.177Z,100.00
2018-12-21T06:07:46.433Z,100.00
2018-12-21T06:10:14.725Z,100.00
2018-12-21T06:12:42.978Z,100.00
2018-12-21T06:15:11.235Z,100.00
2018-12-21T06:17:39.460Z,100.00
2018-12-21T06:20:07.767Z,100.00
2018-12-21T06:22:36.249Z,100.00
2018-12-21T06:25:05.522Z,100.00
2018-12-21T06:27:33.836Z,100.00
2018-12-21T06:30:02.171Z,100.00
2018-12-21T06:32:30.538Z,100.00
2018-12-21T06:34:58.840Z,100.00
2018-12-21T06:37:27.165Z,100.00
2018-12-21T06:39:55.558Z,100.00
2018-12-21T06:42:23.825Z,100.00
2018-12-21T06:44:52.144Z,100.00
2018-12-21T06:47:20.469Z,100.00
2018-12-21T06:49:48.765Z,100.00
2018-12-21T06:52:17.112Z,100.00
2018-12-21T06:54:45.391Z,100.00
2018-12-21T06:57:13.723Z,100.00
2018-12-21T06:59:42.117Z,100.00
2018-12-21T07:02:10.459Z,100.00
2018-12-21T07:04:38.770Z,100.00
2018-12-21T07:07:07.072Z,100.00
2018-12-21T07:09:35.403Z,100.00
2018-12-21T07:12:03.695Z,100.00
2018-12-21T07:14:32.002Z,100.00
2018-12-21T07:17:00.321Z,100.00
2018-12-21T07:19:28.616Z,100.00
2018-12-21T07:21:59.029Z,100.00
2018-12-21T07:24:27.341Z,100.00
2018-12-21T07:26:55.684Z,100.00
2018-12-21T07:29:24.003Z,100.00
2018-12-21T07:31:52.324Z,100.00
2018-12-21T07:34:20.630Z,100.00
2018-12-21T07:36:48.924Z,100.00
2018-12-21T07:39:17.354Z,100.00
2018-12-21T07:41:45.683Z,100.00
2018-12-21T07:44:13.968Z,100.00
2018-12-21T07:46:42.689Z,100.00
2018-12-21T07:49:11.011Z,100.00
2018-12-21T07:51:39.704Z,100.00
2018-12-21T07:54:08.051Z,100.00
2018-12-21T07:56:36.271Z,100.00
2018-12-21T07:59:04.576Z,100.00
2018-12-21T08:01:32.852Z,100.00
2018-12-21T08:04:01.162Z,100.00
2018-12-21T08:06:29.406Z,100.00
2018-12-21T08:08:57.917Z,100.00
2018-12-21T08:11:26.215Z,100.00
2018-12-21T08:13:54.472Z,100.00
2018-12-21T08:16:22.724Z,100.00
2018-12-21T08:18:51.033Z,100.00
2018-12-21T08:21:19.289Z,100.00
2018-12-21T08:23:47.533Z,100.00
2018-12-21T08:26:15.769Z,100.00
2018-12-21T08:28:44.028Z,100.00
2018-12-21T08:31:12.312Z,100.00
2018-12-21T08:33:40.589Z,100.00
2018-12-21T08:36:08.838Z,100.00
2018-12-21T08:38:37.065Z,100.00
2018-12-21T08:41:05.320Z,100.00
2018-12-21T08:43:33.569Z,100.00
2018-12-21T08:46:01.806Z,100.00
2018-12-21T08:48:30.070Z,100.00
2018-12-21T08:50:58.336Z,100.00
2018-12-21T08:53:26.619Z,100.00
2018-12-21T08:55:54.862Z,100.00
2018-12-21T08:58:23.115Z,100.00
2018-12-21T09:00:51.424Z,100.00
2018-12-21T09:03:19.696Z,100.00
2018-12-21T09:05:48.006Z,100.00
2018-12-21T09:08:16.251Z,100.00
2018-12-21T09:13:18.924Z,100.00
2018-12-21T09:15:47.225Z,100.00
2018-12-21T09:18:16.735Z,100.00
2018-12-21T09:20:45.013Z,100.00
2018-12-21T09:23:13.263Z,100.00
2018-12-21T09:25:41.575Z,100.00
2018-12-21T09:28:09.952Z,100.00
2018-12-21T09:30:38.203Z,100.00
2018-12-21T09:33:06.550Z,100.00
2018-12-21T09:35:34.904Z,100.00
2018-12-21T09:38:03.249Z,100.00
2018-12-21T09:40:31.587Z,100.00
2018-12-21T09:43:00.263Z,100.00
2018-12-21T09:45:28.555Z,100.00
2018-12-21T09:47:56.899Z,100.00
2018-12-21T09:50:25.235Z,100.00
2018-12-21T09:52:53.492Z,100.00
2018-12-21T09:55:21.779Z,100.00
2018-12-21T09:57:50.063Z,100.00
2018-12-21T10:00:18.341Z,100.00
2018-12-21T10:02:46.662Z,100.00
2018-12-21T10:05:14.965Z,100.00
2018-12-21T10:07:43.286Z,100.00
2018-12-21T10:10:11.702Z,100.00
2018-12-21T10:12:40.002Z,100.00
2018-12-21T10:15:09.113Z,100.00
2018-12-21T10:17:37.387Z,100.00
2018-12-21T10:20:07.918Z,100.00
2018-12-21T10:22:36.223Z,100.00
2018-12-21T10:25:06.005Z,100.00
2018-12-21T10:27:34.487Z,100.00
2018-12-21T10:30:03.174Z,100.00
2018-12-21T10:32:31.493Z,100.00
2018-12-21T10:34:59.804Z,100.00
2018-12-21T10:37:28.152Z,100.00
2018-12-21T10:39:56.475Z,100.00
2018-12-21T10:42:26.820Z,100.00
2018-12-21T10:44:55.037Z,100.00
2018-12-21T10:47:23.280Z,100.00
2018-12-21T10:49:51.539Z,100.00
2018-12-21T10:52:19.820Z,100.00
2018-12-21T10:54:48.080Z,100.00
2018-12-21T10:57:16.320Z,100.00
2018-12-21T10:59:44.577Z,100.00
2018-12-21T11:02:12.847Z,100.00
2018-12-21T11:04:41.117Z,100.00
2018-12-21T11:07:09.355Z,100.00
2018-12-21T11:09:37.588Z,100.00
2018-12-21T11:12:05.955Z,100.00
2018-12-21T11:14:34.217Z,100.00
2018-12-21T11:17:02.473Z,100.00
2018-12-21T11:19:30.788Z,100.00
2018-12-21T11:21:59.039Z,100.00
2018-12-21T11:24:35.179Z,100.00
2018-12-21T11:26:57.514Z,100.00
2018-12-21T11:29:25.776Z,100.00
2018-12-21T11:31:54.000Z,100.00
2018-12-21T11:34:22.243Z,100.00
2018-12-21T11:36:50.560Z,100.00
2018-12-21T11:39:20.069Z,100.00
2018-12-21T11:41:48.313Z,100.00
2018-12-21T11:44:16.707Z,100.00
2018-12-21T11:46:45.061Z,100.00
2018-12-21T11:49:13.299Z,100.00
2018-12-21T11:51:41.751Z,100.00
2018-12-21T11:54:10.036Z,100.00
2018-12-21T11:56:38.315Z,100.00
2018-12-21T11:59:06.551Z,100.00
2018-12-21T12:01:34.801Z,100.00
2018-12-21T12:04:03.158Z,100.00
2018-12-21T12:06:31.416Z,100.00
2018-12-21T12:09:06.195Z,100.00
2018-12-21T12:11:29.996Z,100.00
2018-12-21T12:13:58.242Z,100.00
2018-12-21T12:16:26.484Z,100.00
2018-12-21T12:18:54.744Z,100.00
2018-12-21T12:21:23.131Z,100.00
2018-12-21T12:23:51.392Z,100.00
2018-12-21T12:26:19.667Z,100.00
2018-12-21T12:28:47.954Z,100.00
2018-12-21T12:31:16.237Z,100.00
2018-12-21T12:33:44.484Z,100.00
2018-12-21T12:36:12.740Z,100.00
2018-12-21T12:38:41.056Z,100.00
2018-12-21T12:41:09.352Z,100.00
2018-12-21T12:43:37.598Z,100.00
2018-12-21T12:46:05.852Z,100.00
2018-12-21T12:48:34.159Z,100.00
2018-12-21T12:51:02.409Z,100.00
2018-12-21T12:53:30.720Z,100.00
2018-12-21T12:55:58.991Z,100.00
2018-12-21T12:58:27.256Z,100.00
2018-12-21T13:00:55.504Z,100.00
2018-12-21T13:03:23.829Z,100.00
2018-12-21T13:05:52.116Z,100.00
2018-12-21T13:08:20.376Z,100.00
2018-12-21T13:10:48.652Z,100.00
2018-12-21T13:13:17.028Z,100.00
2018-12-21T13:15:45.296Z,100.00
2018-12-21T13:18:13.535Z,100.00
2018-12-21T13:20:41.792Z,100.00
2018-12-21T13:23:10.024Z,100.00
2018-12-21T13:25:38.282Z,100.00
2018-12-21T13:28:06.544Z,100.00
2018-12-21T13:30:35.199Z,100.00
2018-12-21T13:33:03.551Z,100.00
2018-12-21T13:35:31.813Z,100.00
2018-12-21T13:38:00.086Z,100.00
2018-12-21T13:40:28.331Z,100.00
2018-12-21T13:42:56.656Z,100.00
2018-12-21T13:45:24.940Z,100.00
2018-12-21T13:47:53.179Z,100.00
2018-12-21T13:50:21.434Z,100.00
2018-12-21T13:52:49.691Z,100.00
2018-12-21T13:55:20.477Z,100.00
2018-12-21T13:57:48.189Z,100.00
2018-12-21T14:00:16.454Z,100.00
2018-12-21T14:02:44.840Z,100.00
2018-12-21T14:05:13.180Z,100.00
2018-12-21T14:07:41.439Z,100.00
2018-12-21T14:10:11.008Z,100.00
2018-12-21T14:12:39.260Z,100.00
2018-12-21T14:15:08.019Z,100.00
2018-12-21T14:17:36.467Z,100.00
2018-12-21T14:20:08.791Z,100.00
2018-12-21T14:22:37.035Z,100.00
2018-12-21T14:27:48.791Z,100.00
2018-12-21T14:30:17.088Z,100.00
2018-12-21T14:32:45.356Z,100.00
2018-12-21T14:35:13.699Z,100.00
2018-12-21T14:37:41.951Z,100.00
2018-12-21T14:40:10.262Z,100.00
2018-12-21T14:42:38.522Z,100.00
2018-12-21T14:45:06.887Z,100.00
2018-12-21T14:47:35.174Z,100.00
2018-12-21T14:50:05.220Z,100.00
2018-12-21T14:52:33.484Z,100.00
2018-12-21T14:55:01.775Z,100.00
2018-12-21T14:57:30.224Z,100.00
2018-12-21T14:59:58.484Z,100.00
2018-12-21T15:02:26.832Z,100.00
2018-12-21T15:04:55.109Z,100.00
2018-12-21T15:07:23.883Z,100.00
2018-12-21T15:09:52.164Z,100.00
2018-12-21T15:12:20.415Z,100.00
2018-12-21T15:14:48.671Z,100.00
2018-12-21T15:17:17.073Z,100.00
2018-12-21T15:19:45.356Z,100.00
2018-12-21T15:22:13.623Z,100.00
2018-12-21T15:24:41.879Z,100.00
2018-12-21T15:27:10.157Z,100.00
2018-12-21T15:29:38.419Z,100.00
2018-12-21T15:32:06.836Z,100.00
2018-12-21T15:34:35.105Z,100.00
2018-12-21T15:37:03.362Z,100.00
2018-12-21T15:39:31.662Z,100.00
2018-12-21T15:42:00.029Z,100.00
2018-12-21T15:44:28.504Z,100.00
2018-12-21T15:46:56.767Z,100.00
2018-12-21T15:49:25.046Z,100.00
2018-12-21T15:51:53.471Z,100.00
2018-12-21T15:54:21.731Z,100.00
2018-12-21T15:56:49.996Z,100.00
2018-12-21T15:59:18.260Z,100.00
2018-12-21T16:01:46.516Z,100.00
2018-12-21T16:04:14.833Z,100.00
2018-12-21T16:06:43.089Z,100.00
2018-12-21T16:09:11.363Z,100.00
2018-12-21T16:11:39.723Z,100.00
2018-12-21T16:14:08.047Z,100.00
2018-12-21T16:16:36.316Z,100.00
2018-12-21T16:19:04.786Z,100.00
2018-12-21T16:21:33.176Z,100.00
2018-12-21T16:24:06.798Z,100.00
2018-12-21T16:26:31.782Z,100.00
2018-12-21T16:29:00.103Z,100.00
2018-12-21T16:31:28.423Z,100.00
2018-12-21T16:33:56.805Z,100.00
2018-12-21T16:36:25.149Z,100.00
2018-12-21T16:38:53.473Z,100.00
2018-12-21T16:41:21.790Z,100.00
2018-12-21T16:43:50.100Z,100.00
2018-12-21T16:46:18.489Z,100.00
2018-12-21T16:48:47.352Z,100.00
2018-12-21T16:51:15.919Z,100.00
2018-12-21T16:53:44.249Z,100.00
2018-12-21T16:56:12.816Z,100.00
2018-12-21T16:58:41.294Z,100.00
2018-12-21T17:01:09.761Z,100.00
2018-12-21T17:03:38.020Z,100.00
2018-12-21T17:06:07.613Z,100.00
2018-12-21T17:08:35.927Z,99.23
2018-12-21T17:11:04.283Z,99.56
2018-12-21T17:13:32.605Z,98.50
2018-12-21T17:16:00.936Z,100.00
2018-12-21T17:18:29.251Z,100.00
2018-12-21T17:20:57.555Z,100.00
2018-12-21T17:23:25.900Z,99.31
2018-12-21T17:25:55.961Z,98.01
2018-12-21T17:28:24.463Z,97.56
2018-12-21T17:30:52.768Z,96.98
2018-12-21T17:33:21.086Z,98.43
2018-12-21T17:35:49.412Z,98.25
2018-12-21T17:38:17.714Z,97.25
2018-12-21T17:40:46.023Z,94.28
2018-12-21T17:43:14.383Z,94.70
2018-12-21T17:45:42.669Z,92.71
2018-12-21T17:48:11.034Z,89.92
2018-12-21T17:50:39.378Z,92.14
2018-12-21T17:53:07.759Z,88.04
2018-12-21T17:55:36.067Z,85.89
2018-12-21T17:58:04.391Z,87.23
2018-12-21T18:00:32.693Z,87.15
2018-12-21T18:03:01.018Z,84.91
2018-12-21T18:05:29.339Z,86.41
2018-12-21T18:07:57.720Z,85.94
2018-12-21T18:10:26.069Z,85.05
2018-12-21T18:12:54.386Z,87.06
2018-12-21T18:15:22.736Z,87.44
2018-12-21T18:17:51.082Z,87.28
2018-12-21T18:20:19.383Z,87.13
2018-12-21T18:22:47.680Z,87.20
2018-12-21T18:25:16.088Z,86.63
2018-12-21T18:27:44.491Z,87.64
2018-12-21T18:30:17.708Z,86.73
2018-12-21T18:32:46.092Z,87.03
2018-12-21T18:35:14.713Z,86.43
2018-12-21T18:37:47.365Z,86.25
2018-12-21T18:40:15.841Z,86.93
2018-12-21T18:42:44.419Z,87.83
2018-12-21T18:45:12.753Z,87.57
2018-12-21T18:47:41.015Z,87.88
2018-12-21T18:50:11.237Z,88.56
2018-12-21T18:52:39.512Z,88.82
2018-12-21T18:55:12.443Z,87.68
2018-12-21T18:57:41.326Z,88.39
2018-12-21T19:00:13.463Z,88.61
2018-12-21T19:02:41.893Z,87.66
2018-12-21T19:05:10.216Z,88.27
2018-12-21T19:07:38.489Z,86.16
2018-12-21T19:10:07.989Z,86.90
2018-12-21T19:12:36.292Z,85.66
2018-12-21T19:15:05.562Z,86.13
2018-12-21T19:17:33.940Z,85.25
2018-12-21T19:20:02.197Z,85.08
2018-12-21T19:22:31.480Z,85.22
2018-12-21T19:24:59.740Z,85.67
2018-12-21T19:27:28.037Z,86.33
2018-12-21T19:29:56.355Z,86.35
2018-12-21T19:32:24.632Z,85.76
2018-12-21T19:34:52.904Z,87.11
2018-12-21T19:37:21.173Z,86.72
2018-12-21T19:39:49.451Z,86.34
2018-12-21T19:42:17.788Z,86.46
2018-12-21T19:44:46.040Z,86.31
2018-12-21T19:47:15.239Z,86.03
2018-12-21T19:49:43.789Z,85.64
2018-12-21T19:52:12.072Z,86.21
2018-12-21T19:54:40.388Z,86.83
2018-12-21T19:57:08.721Z,86.86
2018-12-21T19:59:36.992Z,86.06
2018-12-21T20:02:05.364Z,87.53
2018-12-21T20:04:33.754Z,88.56
2018-12-21T20:07:02.122Z,91.98
2018-12-21T20:09:30.379Z,92.69
2018-12-21T20:11:58.747Z,94.98
2018-12-21T20:14:27.034Z,96.67
2018-12-21T20:16:55.315Z,96.91
2018-12-21T20:19:23.780Z,100.00
2018-12-21T20:21:52.250Z,100.00
2018-12-21T20:24:23.126Z,100.00
2018-12-21T20:26:52.186Z,100.00
2018-12-21T20:29:20.627Z,100.00
2018-12-21T20:31:49.355Z,100.00
2018-12-21T20:34:19.024Z,100.00
2018-12-21T20:36:47.830Z,100.00
2018-12-21T20:39:16.334Z,100.00
2018-12-21T20:41:44.769Z,99.58
2018-12-21T20:44:13.572Z,99.03
2018-12-21T20:46:41.962Z,97.95
2018-12-21T20:49:10.247Z,96.73
2018-12-21T20:51:38.741Z,97.05
2018-12-21T20:54:07.040Z,96.52
2018-12-21T20:56:36.396Z,97.19
2018-12-21T20:59:05.208Z,96.40
2018-12-21T21:01:33.797Z,96.58
2018-12-21T21:04:02.329Z,95.42
2018-12-21T21:06:30.935Z,94.89
2018-12-21T21:08:59.259Z,95.19
2018-12-21T21:11:27.715Z,93.52
2018-12-21T21:13:56.246Z,91.56
2018-12-21T21:16:24.824Z,91.51
2018-12-21T21:18:53.583Z,90.84
2018-12-21T21:21:21.996Z,91.49
2018-12-21T21:23:50.297Z,89.71
2018-12-21T21:26:18.690Z,90.25
2018-12-21T21:28:47.000Z,90.18
2018-12-21T21:31:15.255Z,89.50
2018-12-21T21:33:43.510Z,89.58
2018-12-21T21:36:11.868Z,89.17
2018-12-21T21:38:40.138Z,89.83
2018-12-21T21:41:08.402Z,88.63
2018-12-21T21:43:36.715Z,87.66
2018-12-21T21:46:05.031Z,87.18
2018-12-21T21:48:33.294Z,86.26
2018-12-21T21:51:01.544Z,85.33
2018-12-21T21:53:29.893Z,83.46
2018-12-21T21:55:59.242Z,82.90
2018-12-21T21:58:27.516Z,82.79
2018-12-21T22:00:55.775Z,81.86
2018-12-21T22:03:24.027Z,83.62
2018-12-21T22:05:52.373Z,82.72
2018-12-21T22:08:20.637Z,83.18
2018-12-21T22:10:49.056Z,84.99
2018-12-21T22:13:17.293Z,85.10
2018-12-21T22:15:45.572Z,85.68
2018-12-21T22:18:13.816Z,85.42
2018-12-21T22:20:42.064Z,85.33
2018-12-21T22:23:10.323Z,85.94
2018-12-21T22:25:38.687Z,86.38
2018-12-21T22:28:06.956Z,87.13
2018-12-21T22:30:35.209Z,87.01
2018-12-21T22:33:03.521Z,87.19
2018-12-21T22:35:31.789Z,87.15
2018-12-21T22:38:00.048Z,87.49
2018-12-21T22:40:28.350Z,88.09
2018-12-21T22:42:56.597Z,87.91
2018-12-21T22:45:24.856Z,87.64
2018-12-21T22:47:53.092Z,88.23
2018-12-21T22:50:21.447Z,88.35
2018-12-21T22:52:49.688Z,89.10
2018-12-21T22:55:17.991Z,88.61
2018-12-21T22:57:46.403Z,88.83
2018-12-21T23:03:02.139Z,89.46
2018-12-21T23:05:30.445Z,89.21
2018-12-21T23:07:58.876Z,90.32
2018-12-21T23:10:27.156Z,90.74
2018-12-21T23:12:55.440Z,90.12
2018-12-21T23:15:23.784Z,90.57
2018-12-21T23:17:52.092Z,90.76
2018-12-21T23:20:20.380Z,90.71
2018-12-21T23:22:48.657Z,90.98
2018-12-21T23:25:16.975Z,91.50
2018-12-21T23:27:45.268Z,91.38
2018-12-21T23:30:13.565Z,91.08
2018-12-21T23:32:41.826Z,91.40
2018-12-21T23:35:10.178Z,91.77
2018-12-21T23:37:38.449Z,92.03
2018-12-21T23:40:07.717Z,91.67
2018-12-21T23:42:36.008Z,90.84
2018-12-21T23:45:05.568Z,90.46
2018-12-21T23:47:33.875Z,89.81
2018-12-21T23:50:02.249Z,89.12
2018-12-21T23:52:30.623Z,89.21
2018-12-21T23:54:58.941Z,89.05
2018-12-21T23:57:27.239Z,89.40
2018-12-21T23:59:55.542Z,89.19
